sensor_id;sensor_type;location;lat;lon;timestamp;P1;durP1;ratioP1;P2;durP2;ratioP2
7110;SDS011;3597;42.650;23.386;2023-12-07T00:00:01;4.80;;;4.50;;
7110;SDS011;3597;42.650;23.386;2023-12-07T00:02:26;4.57;;;4.37;;
7110;SDS011;3597;42.650;23.386;2023-12-07T00:04:52;4.97;;;4.67;;
7110;SDS011;3597;42.650;23.386;2023-12-07T00:07:17;5.17;;;4.50;;
7110;SDS011;3597;42.650;23.386;2023-12-07T00:09:43;4.70;;;4.50;;
7110;SDS011;3597;42.650;23.386;2023-12-07T00:12:08;5.13;;;4.83;;
7110;SDS011;3597;42.650;23.386;2023-12-07T00:14:34;4.47;;;4.27;;
7110;SDS011;3597;42.650;23.386;2023-12-07T00:16:59;5.43;;;4.97;;
7110;SDS011;3597;42.650;23.386;2023-12-07T00:19:24;5.10;;;4.80;;
7110;SDS011;3597;42.650;23.386;2023-12-07T00:21:50;5.17;;;4.87;;
7110;SDS011;3597;42.650;23.386;2023-12-07T00:24:15;6.90;;;6.40;;
7110;SDS011;3597;42.650;23.386;2023-12-07T00:26:40;6.97;;;6.47;;
7110;SDS011;3597;42.650;23.386;2023-12-07T00:29:06;7.73;;;6.57;;
7110;SDS011;3597;42.650;23.386;2023-12-07T00:31:31;7.17;;;6.57;;
7110;SDS011;3597;42.650;23.386;2023-12-07T00:33:57;6.57;;;6.13;;
7110;SDS011;3597;42.650;23.386;2023-12-07T00:36:22;7.17;;;6.47;;
7110;SDS011;3597;42.650;23.386;2023-12-07T00:38:48;7.80;;;7.10;;
7110;SDS011;3597;42.650;23.386;2023-12-07T00:41:13;6.90;;;6.40;;
7110;SDS011;3597;42.650;23.386;2023-12-07T00:43:38;6.47;;;5.97;;
7110;SDS011;3597;42.650;23.386;2023-12-07T00:46:06;7.47;;;6.80;;
7110;SDS011;3597;42.650;23.386;2023-12-07T00:48:32;6.53;;;6.03;;
7110;SDS011;3597;42.650;23.386;2023-12-07T00:50:58;6.23;;;5.73;;
7110;SDS011;3597;42.650;23.386;2023-12-07T00:53:23;5.87;;;5.47;;
7110;SDS011;3597;42.650;23.386;2023-12-07T00:55:49;5.80;;;5.30;;
7110;SDS011;3597;42.650;23.386;2023-12-07T00:58:14;6.77;;;6.20;;
7110;SDS011;3597;42.650;23.386;2023-12-07T01:00:39;6.67;;;6.27;;
7110;SDS011;3597;42.650;23.386;2023-12-07T01:03:05;6.63;;;6.20;;
7110;SDS011;3597;42.650;23.386;2023-12-07T01:05:30;6.90;;;6.30;;
7110;SDS011;3597;42.650;23.386;2023-12-07T01:07:56;6.97;;;6.40;;
7110;SDS011;3597;42.650;23.386;2023-12-07T01:10:21;7.90;;;7.20;;
7110;SDS011;3597;42.650;23.386;2023-12-07T01:12:47;7.67;;;6.90;;
7110;SDS011;3597;42.650;23.386;2023-12-07T01:15:12;6.40;;;5.90;;
7110;SDS011;3597;42.650;23.386;2023-12-07T01:17:38;7.40;;;6.83;;
7110;SDS011;3597;42.650;23.386;2023-12-07T01:20:04;7.10;;;6.50;;
7110;SDS011;3597;42.650;23.386;2023-12-07T01:22:36;7.70;;;7.10;;
7110;SDS011;3597;42.650;23.386;2023-12-07T01:25:02;7.23;;;6.63;;
7110;SDS011;3597;42.650;23.386;2023-12-07T01:27:27;7.67;;;7.07;;
7110;SDS011;3597;42.650;23.386;2023-12-07T01:29:53;7.60;;;6.43;;
7110;SDS011;3597;42.650;23.386;2023-12-07T01:32:18;7.67;;;7.07;;
7110;SDS011;3597;42.650;23.386;2023-12-07T01:34:44;7.43;;;6.90;;
7110;SDS011;3597;42.650;23.386;2023-12-07T01:37:09;6.83;;;6.33;;
7110;SDS011;3597;42.650;23.386;2023-12-07T01:39:35;7.43;;;6.87;;
7110;SDS011;3597;42.650;23.386;2023-12-07T01:42:00;7.33;;;6.83;;
7110;SDS011;3597;42.650;23.386;2023-12-07T01:44:25;7.07;;;6.57;;
7110;SDS011;3597;42.650;23.386;2023-12-07T01:46:53;7.30;;;6.80;;
7110;SDS011;3597;42.650;23.386;2023-12-07T01:49:18;7.20;;;6.70;;
7110;SDS011;3597;42.650;23.386;2023-12-07T01:51:44;7.47;;;6.87;;
7110;SDS011;3597;42.650;23.386;2023-12-07T01:54:09;8.10;;;7.50;;
7110;SDS011;3597;42.650;23.386;2023-12-07T01:56:35;7.53;;;7.00;;
7110;SDS011;3597;42.650;23.386;2023-12-07T01:59:00;8.70;;;8.00;;
7110;SDS011;3597;42.650;23.386;2023-12-07T02:01:26;7.83;;;7.03;;
7110;SDS011;3597;42.650;23.386;2023-12-07T02:03:51;9.10;;;7.23;;
7110;SDS011;3597;42.650;23.386;2023-12-07T02:06:17;8.03;;;7.37;;
7110;SDS011;3597;42.650;23.386;2023-12-07T02:08:43;8.03;;;7.30;;
7110;SDS011;3597;42.650;23.386;2023-12-07T02:11:08;8.17;;;7.37;;
7110;SDS011;3597;42.650;23.386;2023-12-07T02:13:35;8.63;;;7.93;;
7110;SDS011;3597;42.650;23.386;2023-12-07T02:16:02;8.07;;;7.37;;
7110;SDS011;3597;42.650;23.386;2023-12-07T02:18:36;8.60;;;7.80;;
7110;SDS011;3597;42.650;23.386;2023-12-07T02:21:16;7.70;;;7.13;;
7110;SDS011;3597;42.650;23.386;2023-12-07T02:23:47;7.90;;;7.10;;
7110;SDS011;3597;42.650;23.386;2023-12-07T02:29:15;8.33;;;7.53;;
7110;SDS011;3597;42.650;23.386;2023-12-07T02:31:40;7.53;;;6.93;;
7110;SDS011;3597;42.650;23.386;2023-12-07T02:34:06;10.90;;;9.90;;
7110;SDS011;3597;42.650;23.386;2023-12-07T02:36:32;8.33;;;7.57;;
7110;SDS011;3597;42.650;23.386;2023-12-07T02:41:33;8.17;;;7.47;;
7110;SDS011;3597;42.650;23.386;2023-12-07T02:43:59;9.13;;;8.20;;
7110;SDS011;3597;42.650;23.386;2023-12-07T02:46:25;8.17;;;7.47;;
7110;SDS011;3597;42.650;23.386;2023-12-07T02:48:50;8.23;;;7.53;;
7110;SDS011;3597;42.650;23.386;2023-12-07T02:51:16;8.13;;;7.43;;
7110;SDS011;3597;42.650;23.386;2023-12-07T02:53:41;7.90;;;7.20;;
7110;SDS011;3597;42.650;23.386;2023-12-07T02:56:07;8.30;;;7.60;;
7110;SDS011;3597;42.650;23.386;2023-12-07T02:58:32;7.63;;;6.93;;
7110;SDS011;3597;42.650;23.386;2023-12-07T03:00:58;8.07;;;7.37;;
7110;SDS011;3597;42.650;23.386;2023-12-07T03:03:24;7.30;;;6.77;;
7110;SDS011;3597;42.650;23.386;2023-12-07T03:05:49;7.20;;;6.70;;
7110;SDS011;3597;42.650;23.386;2023-12-07T03:08:15;8.37;;;7.63;;
7110;SDS011;3597;42.650;23.386;2023-12-07T03:10:40;6.93;;;6.37;;
7110;SDS011;3597;42.650;23.386;2023-12-07T03:13:06;7.97;;;7.37;;
7110;SDS011;3597;42.650;23.386;2023-12-07T03:15:31;8.03;;;7.27;;
7110;SDS011;3597;42.650;23.386;2023-12-07T03:17:57;8.33;;;7.60;;
7110;SDS011;3597;42.650;23.386;2023-12-07T03:20:22;8.33;;;7.63;;
7110;SDS011;3597;42.650;23.386;2023-12-07T03:22:48;7.77;;;7.07;;
7110;SDS011;3597;42.650;23.386;2023-12-07T03:25:13;7.83;;;7.13;;
7110;SDS011;3597;42.650;23.386;2023-12-07T03:27:39;8.47;;;7.77;;
7110;SDS011;3597;42.650;23.386;2023-12-07T03:30:04;7.00;;;6.43;;
7110;SDS011;3597;42.650;23.386;2023-12-07T03:32:30;7.80;;;7.20;;
7110;SDS011;3597;42.650;23.386;2023-12-07T03:34:56;7.93;;;7.23;;
7110;SDS011;3597;42.650;23.386;2023-12-07T03:37:21;7.87;;;7.17;;
7110;SDS011;3597;42.650;23.386;2023-12-07T03:39:46;8.03;;;7.33;;
7110;SDS011;3597;42.650;23.386;2023-12-07T03:42:12;7.73;;;7.13;;
7110;SDS011;3597;42.650;23.386;2023-12-07T03:44:38;7.63;;;6.93;;
7110;SDS011;3597;42.650;23.386;2023-12-07T03:47:03;8.43;;;7.20;;
7110;SDS011;3597;42.650;23.386;2023-12-07T03:49:29;8.03;;;7.43;;
7110;SDS011;3597;42.650;23.386;2023-12-07T03:51:54;7.97;;;7.37;;
7110;SDS011;3597;42.650;23.386;2023-12-07T03:54:20;8.97;;;8.27;;
7110;SDS011;3597;42.650;23.386;2023-12-07T03:56:45;8.60;;;7.80;;
7110;SDS011;3597;42.650;23.386;2023-12-07T03:59:11;7.30;;;6.70;;
7110;SDS011;3597;42.650;23.386;2023-12-07T04:01:36;7.17;;;6.67;;
7110;SDS011;3597;42.650;23.386;2023-12-07T04:04:01;7.47;;;6.87;;
7110;SDS011;3597;42.650;23.386;2023-12-07T04:06:27;7.77;;;7.10;;
7110;SDS011;3597;42.650;23.386;2023-12-07T04:08:53;6.90;;;6.40;;
7110;SDS011;3597;42.650;23.386;2023-12-07T04:11:18;7.40;;;6.80;;
7110;SDS011;3597;42.650;23.386;2023-12-07T04:13:44;7.80;;;7.10;;
7110;SDS011;3597;42.650;23.386;2023-12-07T04:16:10;6.50;;;6.10;;
7110;SDS011;3597;42.650;23.386;2023-12-07T04:18:36;6.47;;;6.00;;
7110;SDS011;3597;42.650;23.386;2023-12-07T04:21:01;7.00;;;6.47;;
7110;SDS011;3597;42.650;23.386;2023-12-07T04:23:27;6.90;;;6.30;;
7110;SDS011;3597;42.650;23.386;2023-12-07T04:25:53;7.50;;;7.00;;
7110;SDS011;3597;42.650;23.386;2023-12-07T04:28:19;7.87;;;7.27;;
7110;SDS011;3597;42.650;23.386;2023-12-07T04:30:44;7.13;;;6.63;;
7110;SDS011;3597;42.650;23.386;2023-12-07T04:33:09;6.83;;;6.40;;
7110;SDS011;3597;42.650;23.386;2023-12-07T04:35:35;7.30;;;6.80;;
7110;SDS011;3597;42.650;23.386;2023-12-07T04:38:01;7.40;;;6.90;;
7110;SDS011;3597;42.650;23.386;2023-12-07T04:40:27;6.67;;;6.23;;
7110;SDS011;3597;42.650;23.386;2023-12-07T04:42:52;7.33;;;6.83;;
7110;SDS011;3597;42.650;23.386;2023-12-07T04:45:18;8.37;;;7.57;;
7110;SDS011;3597;42.650;23.386;2023-12-07T04:47:43;7.77;;;7.17;;
7110;SDS011;3597;42.650;23.386;2023-12-07T04:50:09;7.83;;;7.13;;
7110;SDS011;3597;42.650;23.386;2023-12-07T04:52:35;7.13;;;6.63;;
7110;SDS011;3597;42.650;23.386;2023-12-07T04:55:01;7.17;;;6.67;;
7110;SDS011;3597;42.650;23.386;2023-12-07T04:57:26;7.43;;;6.83;;
7110;SDS011;3597;42.650;23.386;2023-12-07T04:59:52;8.10;;;7.53;;
7110;SDS011;3597;42.650;23.386;2023-12-07T05:02:17;6.60;;;6.13;;
7110;SDS011;3597;42.650;23.386;2023-12-07T05:04:43;6.10;;;5.73;;
7110;SDS011;3597;42.650;23.386;2023-12-07T05:07:10;6.97;;;6.37;;
7110;SDS011;3597;42.650;23.386;2023-12-07T05:09:36;7.10;;;6.47;;
7110;SDS011;3597;42.650;23.386;2023-12-07T05:12:01;7.27;;;5.73;;
7110;SDS011;3597;42.650;23.386;2023-12-07T05:14:27;7.03;;;6.50;;
7110;SDS011;3597;42.650;23.386;2023-12-07T05:16:52;7.00;;;6.50;;
7110;SDS011;3597;42.650;23.386;2023-12-07T05:22:53;6.60;;;6.17;;
7110;SDS011;3597;42.650;23.386;2023-12-07T05:25:18;7.33;;;6.83;;
7110;SDS011;3597;42.650;23.386;2023-12-07T05:27:44;8.13;;;7.43;;
7110;SDS011;3597;42.650;23.386;2023-12-07T05:30:10;8.03;;;7.30;;
7110;SDS011;3597;42.650;23.386;2023-12-07T05:32:35;8.17;;;7.53;;
7110;SDS011;3597;42.650;23.386;2023-12-07T05:35:01;7.27;;;6.77;;
7110;SDS011;3597;42.650;23.386;2023-12-07T05:37:27;7.20;;;6.63;;
7110;SDS011;3597;42.650;23.386;2023-12-07T05:43:50;6.73;;;6.13;;
7110;SDS011;3597;42.650;23.386;2023-12-07T05:46:16;5.40;;;5.00;;
7110;SDS011;3597;42.650;23.386;2023-12-07T05:48:42;7.20;;;6.60;;
7110;SDS011;3597;42.650;23.386;2023-12-07T05:51:13;6.23;;;5.83;;
7110;SDS011;3597;42.650;23.386;2023-12-07T05:53:40;6.53;;;6.13;;
7110;SDS011;3597;42.650;23.386;2023-12-07T05:58:41;6.70;;;6.10;;
7110;SDS011;3597;42.650;23.386;2023-12-07T06:01:07;5.57;;;5.17;;
7110;SDS011;3597;42.650;23.386;2023-12-07T06:03:32;6.27;;;5.87;;
7110;SDS011;3597;42.650;23.386;2023-12-07T06:05:58;6.33;;;5.83;;
7110;SDS011;3597;42.650;23.386;2023-12-07T06:08:23;5.40;;;5.10;;
7110;SDS011;3597;42.650;23.386;2023-12-07T06:10:49;5.90;;;5.50;;
7110;SDS011;3597;42.650;23.386;2023-12-07T06:13:14;6.87;;;6.40;;
7110;SDS011;3597;42.650;23.386;2023-12-07T06:15:40;6.70;;;6.20;;
7110;SDS011;3597;42.650;23.386;2023-12-07T06:18:06;6.50;;;6.10;;
7110;SDS011;3597;42.650;23.386;2023-12-07T06:20:32;6.43;;;6.03;;
7110;SDS011;3597;42.650;23.386;2023-12-07T06:22:57;6.00;;;5.70;;
7110;SDS011;3597;42.650;23.386;2023-12-07T06:25:23;5.97;;;5.67;;
7110;SDS011;3597;42.650;23.386;2023-12-07T06:27:49;6.20;;;5.80;;
7110;SDS011;3597;42.650;23.386;2023-12-07T06:30:14;6.40;;;6.00;;
7110;SDS011;3597;42.650;23.386;2023-12-07T06:32:40;6.23;;;5.73;;
7110;SDS011;3597;42.650;23.386;2023-12-07T06:37:36;6.57;;;6.27;;
7110;SDS011;3597;42.650;23.386;2023-12-07T06:40:02;6.80;;;6.30;;
7110;SDS011;3597;42.650;23.386;2023-12-07T06:42:29;6.13;;;5.50;;
7110;SDS011;3597;42.650;23.386;2023-12-07T06:44:55;5.53;;;5.17;;
7110;SDS011;3597;42.650;23.386;2023-12-07T06:47:20;6.53;;;6.13;;
7110;SDS011;3597;42.650;23.386;2023-12-07T06:49:45;5.33;;;5.03;;
7110;SDS011;3597;42.650;23.386;2023-12-07T06:52:11;6.30;;;5.93;;
7110;SDS011;3597;42.650;23.386;2023-12-07T06:54:37;5.83;;;5.43;;
7110;SDS011;3597;42.650;23.386;2023-12-07T06:57:06;6.37;;;5.87;;
7110;SDS011;3597;42.650;23.386;2023-12-07T06:59:32;5.57;;;5.17;;
7110;SDS011;3597;42.650;23.386;2023-12-07T07:01:58;6.10;;;5.70;;
7110;SDS011;3597;42.650;23.386;2023-12-07T07:04:23;6.00;;;5.60;;
7110;SDS011;3597;42.650;23.386;2023-12-07T07:06:49;5.50;;;5.13;;
7110;SDS011;3597;42.650;23.386;2023-12-07T07:09:15;4.97;;;4.67;;
7110;SDS011;3597;42.650;23.386;2023-12-07T07:11:40;5.40;;;5.03;;
7110;SDS011;3597;42.650;23.386;2023-12-07T07:14:06;5.40;;;5.10;;
7110;SDS011;3597;42.650;23.386;2023-12-07T07:16:32;6.37;;;4.80;;
7110;SDS011;3597;42.650;23.386;2023-12-07T07:18:58;4.97;;;4.67;;
7110;SDS011;3597;42.650;23.386;2023-12-07T07:21:24;5.20;;;4.70;;
7110;SDS011;3597;42.650;23.386;2023-12-07T07:23:49;5.23;;;4.93;;
7110;SDS011;3597;42.650;23.386;2023-12-07T07:26:15;4.63;;;4.33;;
7110;SDS011;3597;42.650;23.386;2023-12-07T07:28:44;4.80;;;4.50;;
7110;SDS011;3597;42.650;23.386;2023-12-07T07:31:10;4.37;;;4.10;;
7110;SDS011;3597;42.650;23.386;2023-12-07T07:33:35;4.43;;;4.23;;
7110;SDS011;3597;42.650;23.386;2023-12-07T07:36:01;3.67;;;3.50;;
7110;SDS011;3597;42.650;23.386;2023-12-07T07:38:26;3.93;;;3.73;;
7110;SDS011;3597;42.650;23.386;2023-12-07T07:40:52;4.83;;;4.33;;
7110;SDS011;3597;42.650;23.386;2023-12-07T07:43:17;4.53;;;4.30;;
7110;SDS011;3597;42.650;23.386;2023-12-07T07:45:43;4.43;;;4.13;;
7110;SDS011;3597;42.650;23.386;2023-12-07T07:48:09;3.90;;;3.70;;
7110;SDS011;3597;42.650;23.386;2023-12-07T07:50:34;4.13;;;3.97;;
7110;SDS011;3597;42.650;23.386;2023-12-07T07:53:01;4.03;;;3.83;;
7110;SDS011;3597;42.650;23.386;2023-12-07T07:55:28;4.13;;;3.93;;
7110;SDS011;3597;42.650;23.386;2023-12-07T07:57:53;4.77;;;4.47;;
7110;SDS011;3597;42.650;23.386;2023-12-07T08:00:19;4.30;;;4.17;;
7110;SDS011;3597;42.650;23.386;2023-12-07T08:05:15;5.43;;;4.50;;
7110;SDS011;3597;42.650;23.386;2023-12-07T08:07:41;4.50;;;4.20;;
7110;SDS011;3597;42.650;23.386;2023-12-07T08:10:09;4.27;;;3.97;;
7110;SDS011;3597;42.650;23.386;2023-12-07T08:12:35;3.77;;;3.63;;
7110;SDS011;3597;42.650;23.386;2023-12-07T08:15:01;4.47;;;4.17;;
7110;SDS011;3597;42.650;23.386;2023-12-07T08:17:27;3.53;;;3.43;;
7110;SDS011;3597;42.650;23.386;2023-12-07T08:19:53;3.83;;;3.73;;
7110;SDS011;3597;42.650;23.386;2023-12-07T08:22:18;3.23;;;3.13;;
7110;SDS011;3597;42.650;23.386;2023-12-07T08:24:45;3.13;;;3.03;;
7110;SDS011;3597;42.650;23.386;2023-12-07T08:27:11;3.33;;;3.20;;
7110;SDS011;3597;42.650;23.386;2023-12-07T08:29:36;2.93;;;2.83;;
7110;SDS011;3597;42.650;23.386;2023-12-07T08:32:02;3.00;;;2.90;;
7110;SDS011;3597;42.650;23.386;2023-12-07T08:34:28;3.00;;;2.90;;
7110;SDS011;3597;42.650;23.386;2023-12-07T08:36:54;2.43;;;2.33;;
7110;SDS011;3597;42.650;23.386;2023-12-07T08:39:19;2.60;;;2.50;;
7110;SDS011;3597;42.650;23.386;2023-12-07T08:41:44;2.30;;;2.30;;
7110;SDS011;3597;42.650;23.386;2023-12-07T08:44:10;2.00;;;2.00;;
7110;SDS011;3597;42.650;23.386;2023-12-07T08:46:36;2.03;;;1.97;;
7110;SDS011;3597;42.650;23.386;2023-12-07T08:49:01;2.60;;;2.60;;
7110;SDS011;3597;42.650;23.386;2023-12-07T08:51:28;2.17;;;2.07;;
7110;SDS011;3597;42.650;23.386;2023-12-07T08:53:53;2.60;;;2.50;;
7110;SDS011;3597;42.650;23.386;2023-12-07T08:56:19;2.60;;;2.50;;
7110;SDS011;3597;42.650;23.386;2023-12-07T08:58:45;2.00;;;2.00;;
7110;SDS011;3597;42.650;23.386;2023-12-07T09:01:11;1.80;;;1.80;;
7110;SDS011;3597;42.650;23.386;2023-12-07T09:03:36;1.90;;;1.90;;
7110;SDS011;3597;42.650;23.386;2023-12-07T09:06:02;1.70;;;1.70;;
7110;SDS011;3597;42.650;23.386;2023-12-07T09:08:28;1.80;;;1.80;;
7110;SDS011;3597;42.650;23.386;2023-12-07T09:10:53;1.47;;;1.47;;
7110;SDS011;3597;42.650;23.386;2023-12-07T09:13:19;1.80;;;1.80;;
7110;SDS011;3597;42.650;23.386;2023-12-07T09:15:44;1.90;;;1.90;;
7110;SDS011;3597;42.650;23.386;2023-12-07T09:18:10;1.30;;;1.30;;
7110;SDS011;3597;42.650;23.386;2023-12-07T09:20:39;1.43;;;1.43;;
7110;SDS011;3597;42.650;23.386;2023-12-07T09:25:45;1.70;;;1.70;;
7110;SDS011;3597;42.650;23.386;2023-12-07T09:28:10;1.13;;;1.13;;
7110;SDS011;3597;42.650;23.386;2023-12-07T09:30:36;1.30;;;1.30;;
7110;SDS011;3597;42.650;23.386;2023-12-07T09:33:02;1.40;;;1.40;;
7110;SDS011;3597;42.650;23.386;2023-12-07T09:35:28;1.60;;;1.50;;
7110;SDS011;3597;42.650;23.386;2023-12-07T09:37:53;1.30;;;1.30;;
7110;SDS011;3597;42.650;23.386;2023-12-07T09:40:20;1.07;;;1.07;;
7110;SDS011;3597;42.650;23.386;2023-12-07T09:42:46;1.20;;;1.20;;
7110;SDS011;3597;42.650;23.386;2023-12-07T09:45:12;1.40;;;1.40;;
7110;SDS011;3597;42.650;23.386;2023-12-07T09:47:40;0.67;;;0.67;;
7110;SDS011;3597;42.650;23.386;2023-12-07T09:50:06;1.10;;;1.10;;
7110;SDS011;3597;42.650;23.386;2023-12-07T09:52:37;1.10;;;1.10;;
7110;SDS011;3597;42.650;23.386;2023-12-07T09:55:03;1.20;;;1.20;;
7110;SDS011;3597;42.650;23.386;2023-12-07T09:57:29;1.10;;;1.10;;
7110;SDS011;3597;42.650;23.386;2023-12-07T09:59:55;1.00;;;1.00;;
7110;SDS011;3597;42.650;23.386;2023-12-07T10:02:21;1.00;;;1.00;;
7110;SDS011;3597;42.650;23.386;2023-12-07T10:04:47;1.27;;;1.20;;
7110;SDS011;3597;42.650;23.386;2023-12-07T10:07:13;1.03;;;0.87;;
7110;SDS011;3597;42.650;23.386;2023-12-07T10:09:39;0.90;;;0.90;;
7110;SDS011;3597;42.650;23.386;2023-12-07T10:12:05;0.80;;;0.80;;
7110;SDS011;3597;42.650;23.386;2023-12-07T10:14:31;0.70;;;0.70;;
7110;SDS011;3597;42.650;23.386;2023-12-07T10:16:59;0.70;;;0.70;;
7110;SDS011;3597;42.650;23.386;2023-12-07T10:19:25;1.00;;;1.00;;
7110;SDS011;3597;42.650;23.386;2023-12-07T10:21:52;0.70;;;0.70;;
7110;SDS011;3597;42.650;23.386;2023-12-07T10:24:19;0.50;;;0.50;;
7110;SDS011;3597;42.650;23.386;2023-12-07T10:26:47;0.80;;;0.80;;
7110;SDS011;3597;42.650;23.386;2023-12-07T10:29:13;0.50;;;0.50;;
7110;SDS011;3597;42.650;23.386;2023-12-07T10:31:39;0.43;;;0.43;;
7110;SDS011;3597;42.650;23.386;2023-12-07T10:34:04;0.70;;;0.70;;
7110;SDS011;3597;42.650;23.386;2023-12-07T10:36:30;0.57;;;0.57;;
7110;SDS011;3597;42.650;23.386;2023-12-07T10:38:56;0.50;;;0.50;;
7110;SDS011;3597;42.650;23.386;2023-12-07T10:41:22;0.80;;;0.80;;
7110;SDS011;3597;42.650;23.386;2023-12-07T10:43:49;0.60;;;0.60;;
7110;SDS011;3597;42.650;23.386;2023-12-07T10:46:18;0.60;;;0.60;;
7110;SDS011;3597;42.650;23.386;2023-12-07T10:48:48;0.90;;;0.90;;
7110;SDS011;3597;42.650;23.386;2023-12-07T10:51:17;0.70;;;0.70;;
7110;SDS011;3597;42.650;23.386;2023-12-07T10:53:46;0.50;;;0.50;;
7110;SDS011;3597;42.650;23.386;2023-12-07T10:56:16;0.50;;;0.50;;
7110;SDS011;3597;42.650;23.386;2023-12-07T10:58:49;0.70;;;0.70;;
7110;SDS011;3597;42.650;23.386;2023-12-07T11:01:15;0.80;;;0.80;;
7110;SDS011;3597;42.650;23.386;2023-12-07T11:03:42;0.90;;;0.90;;
7110;SDS011;3597;42.650;23.386;2023-12-07T11:06:08;0.87;;;0.87;;
7110;SDS011;3597;42.650;23.386;2023-12-07T11:08:44;1.50;;;1.50;;
7110;SDS011;3597;42.650;23.386;2023-12-07T11:11:29;0.77;;;0.77;;
7110;SDS011;3597;42.650;23.386;2023-12-07T11:14:02;1.10;;;1.10;;
7110;SDS011;3597;42.650;23.386;2023-12-07T11:16:30;0.87;;;0.87;;
7110;SDS011;3597;42.650;23.386;2023-12-07T11:19:02;0.90;;;0.90;;
7110;SDS011;3597;42.650;23.386;2023-12-07T11:21:29;0.80;;;0.80;;
7110;SDS011;3597;42.650;23.386;2023-12-07T11:23:55;0.90;;;0.90;;
7110;SDS011;3597;42.650;23.386;2023-12-07T11:26:24;0.93;;;0.93;;
7110;SDS011;3597;42.650;23.386;2023-12-07T11:28:50;0.90;;;0.90;;
7110;SDS011;3597;42.650;23.386;2023-12-07T11:31:16;0.73;;;0.73;;
7110;SDS011;3597;42.650;23.386;2023-12-07T11:33:42;1.17;;;1.17;;
7110;SDS011;3597;42.650;23.386;2023-12-07T11:36:08;1.13;;;1.03;;
7110;SDS011;3597;42.650;23.386;2023-12-07T11:38:37;0.83;;;0.83;;
7110;SDS011;3597;42.650;23.386;2023-12-07T11:41:04;0.40;;;0.40;;
7110;SDS011;3597;42.650;23.386;2023-12-07T11:43:32;0.50;;;0.50;;
7110;SDS011;3597;42.650;23.386;2023-12-07T11:46:02;0.80;;;0.80;;
7110;SDS011;3597;42.650;23.386;2023-12-07T11:48:28;0.63;;;0.63;;
7110;SDS011;3597;42.650;23.386;2023-12-07T11:51:01;1.60;;;1.60;;
7110;SDS011;3597;42.650;23.386;2023-12-07T11:53:34;0.60;;;0.60;;
7110;SDS011;3597;42.650;23.386;2023-12-07T11:56:00;1.00;;;1.00;;
7110;SDS011;3597;42.650;23.386;2023-12-07T11:58:27;0.97;;;0.77;;
7110;SDS011;3597;42.650;23.386;2023-12-07T12:00:54;0.70;;;0.70;;
7110;SDS011;3597;42.650;23.386;2023-12-07T12:03:21;0.80;;;0.80;;
7110;SDS011;3597;42.650;23.386;2023-12-07T12:05:47;1.07;;;1.07;;
7110;SDS011;3597;42.650;23.386;2023-12-07T12:08:12;0.80;;;0.80;;
7110;SDS011;3597;42.650;23.386;2023-12-07T12:10:39;0.87;;;0.87;;
7110;SDS011;3597;42.650;23.386;2023-12-07T12:13:05;1.00;;;1.00;;
7110;SDS011;3597;42.650;23.386;2023-12-07T12:15:31;0.80;;;0.80;;
7110;SDS011;3597;42.650;23.386;2023-12-07T12:17:57;0.77;;;0.77;;
7110;SDS011;3597;42.650;23.386;2023-12-07T12:20:26;0.70;;;0.70;;
7110;SDS011;3597;42.650;23.386;2023-12-07T12:22:52;0.70;;;0.70;;
7110;SDS011;3597;42.650;23.386;2023-12-07T12:25:22;0.60;;;0.60;;
7110;SDS011;3597;42.650;23.386;2023-12-07T12:27:50;1.10;;;1.00;;
7110;SDS011;3597;42.650;23.386;2023-12-07T12:30:20;1.00;;;1.00;;
7110;SDS011;3597;42.650;23.386;2023-12-07T12:32:47;1.17;;;1.17;;
7110;SDS011;3597;42.650;23.386;2023-12-07T12:35:13;0.83;;;0.83;;
7110;SDS011;3597;42.650;23.386;2023-12-07T12:37:41;0.80;;;0.80;;
7110;SDS011;3597;42.650;23.386;2023-12-07T12:40:08;0.57;;;0.57;;
7110;SDS011;3597;42.650;23.386;2023-12-07T12:42:35;0.90;;;0.90;;
7110;SDS011;3597;42.650;23.386;2023-12-07T12:45:04;0.43;;;0.43;;
7110;SDS011;3597;42.650;23.386;2023-12-07T12:47:30;1.07;;;1.07;;
7110;SDS011;3597;42.650;23.386;2023-12-07T12:49:56;0.90;;;0.90;;
7110;SDS011;3597;42.650;23.386;2023-12-07T12:52:23;0.90;;;0.90;;
7110;SDS011;3597;42.650;23.386;2023-12-07T12:54:50;1.10;;;1.10;;
7110;SDS011;3597;42.650;23.386;2023-12-07T12:57:16;0.70;;;0.70;;
7110;SDS011;3597;42.650;23.386;2023-12-07T12:59:44;0.60;;;0.60;;
7110;SDS011;3597;42.650;23.386;2023-12-07T13:02:10;0.97;;;0.97;;
7110;SDS011;3597;42.650;23.386;2023-12-07T13:04:36;0.80;;;0.80;;
7110;SDS011;3597;42.650;23.386;2023-12-07T13:07:02;0.63;;;0.63;;
7110;SDS011;3597;42.650;23.386;2023-12-07T13:09:27;1.03;;;1.03;;
7110;SDS011;3597;42.650;23.386;2023-12-07T13:11:54;1.00;;;1.00;;
7110;SDS011;3597;42.650;23.386;2023-12-07T13:14:19;0.80;;;0.80;;
7110;SDS011;3597;42.650;23.386;2023-12-07T13:16:44;0.83;;;0.83;;
7110;SDS011;3597;42.650;23.386;2023-12-07T13:19:10;1.20;;;1.20;;
7110;SDS011;3597;42.650;23.386;2023-12-07T13:21:35;1.00;;;1.00;;
7110;SDS011;3597;42.650;23.386;2023-12-07T13:24:01;1.03;;;0.90;;
7110;SDS011;3597;42.650;23.386;2023-12-07T13:26:29;1.00;;;1.00;;
7110;SDS011;3597;42.650;23.386;2023-12-07T13:28:55;1.47;;;1.47;;
7110;SDS011;3597;42.650;23.386;2023-12-07T13:31:21;1.50;;;1.50;;
7110;SDS011;3597;42.650;23.386;2023-12-07T13:33:47;0.90;;;0.90;;
7110;SDS011;3597;42.650;23.386;2023-12-07T13:36:12;1.33;;;1.33;;
7110;SDS011;3597;42.650;23.386;2023-12-07T13:38:39;1.40;;;1.40;;
7110;SDS011;3597;42.650;23.386;2023-12-07T13:41:05;1.40;;;1.40;;
7110;SDS011;3597;42.650;23.386;2023-12-07T13:43:31;1.50;;;1.50;;
7110;SDS011;3597;42.650;23.386;2023-12-07T13:45:58;1.20;;;1.20;;
7110;SDS011;3597;42.650;23.386;2023-12-07T13:48:24;1.30;;;1.30;;
7110;SDS011;3597;42.650;23.386;2023-12-07T13:50:50;1.30;;;1.30;;
7110;SDS011;3597;42.650;23.386;2023-12-07T13:53:15;1.13;;;1.13;;
7110;SDS011;3597;42.650;23.386;2023-12-07T13:55:41;1.60;;;1.60;;
7110;SDS011;3597;42.650;23.386;2023-12-07T13:58:06;0.93;;;0.93;;
7110;SDS011;3597;42.650;23.386;2023-12-07T14:00:32;1.40;;;1.40;;
7110;SDS011;3597;42.650;23.386;2023-12-07T14:02:59;1.30;;;1.30;;
7110;SDS011;3597;42.650;23.386;2023-12-07T14:05:24;1.10;;;1.10;;
7110;SDS011;3597;42.650;23.386;2023-12-07T14:07:50;0.90;;;0.90;;
7110;SDS011;3597;42.650;23.386;2023-12-07T14:10:16;1.90;;;1.90;;
7110;SDS011;3597;42.650;23.386;2023-12-07T14:12:41;1.73;;;1.63;;
7110;SDS011;3597;42.650;23.386;2023-12-07T14:15:07;1.50;;;1.50;;
7110;SDS011;3597;42.650;23.386;2023-12-07T14:17:33;1.10;;;1.10;;
7110;SDS011;3597;42.650;23.386;2023-12-07T14:20:05;1.43;;;1.43;;
7110;SDS011;3597;42.650;23.386;2023-12-07T14:22:34;1.70;;;1.60;;
7110;SDS011;3597;42.650;23.386;2023-12-07T14:25:00;1.37;;;1.37;;
7110;SDS011;3597;42.650;23.386;2023-12-07T14:27:26;1.30;;;1.30;;
7110;SDS011;3597;42.650;23.386;2023-12-07T14:29:51;1.50;;;1.50;;
7110;SDS011;3597;42.650;23.386;2023-12-07T14:40:08;1.40;;;1.40;;
7110;SDS011;3597;42.650;23.386;2023-12-07T14:42:34;2.23;;;2.17;;
7110;SDS011;3597;42.650;23.386;2023-12-07T14:45:00;3.20;;;3.10;;
7110;SDS011;3597;42.650;23.386;2023-12-07T14:47:25;2.10;;;2.10;;
7110;SDS011;3597;42.650;23.386;2023-12-07T14:49:51;2.10;;;2.10;;
7110;SDS011;3597;42.650;23.386;2023-12-07T14:52:16;1.43;;;1.43;;
7110;SDS011;3597;42.650;23.386;2023-12-07T14:54:42;2.47;;;2.47;;
7110;SDS011;3597;42.650;23.386;2023-12-07T14:57:07;1.27;;;1.27;;
7110;SDS011;3597;42.650;23.386;2023-12-07T14:59:35;1.70;;;1.70;;
7110;SDS011;3597;42.650;23.386;2023-12-07T15:02:00;2.43;;;2.37;;
7110;SDS011;3597;42.650;23.386;2023-12-07T15:04:26;1.67;;;1.67;;
7110;SDS011;3597;42.650;23.386;2023-12-07T15:06:51;1.70;;;1.70;;
7110;SDS011;3597;42.650;23.386;2023-12-07T15:09:18;2.10;;;2.00;;
7110;SDS011;3597;42.650;23.386;2023-12-07T15:11:45;1.23;;;1.23;;
7110;SDS011;3597;42.650;23.386;2023-12-07T15:14:10;1.27;;;1.27;;
7110;SDS011;3597;42.650;23.386;2023-12-07T15:19:27;1.40;;;1.40;;
7110;SDS011;3597;42.650;23.386;2023-12-07T15:21:52;1.10;;;1.10;;
7110;SDS011;3597;42.650;23.386;2023-12-07T15:24:18;1.03;;;1.03;;
7110;SDS011;3597;42.650;23.386;2023-12-07T15:26:45;1.23;;;1.23;;